sensor_id;sensor_type;location;lat;lon;timestamp;P1;durP1;ratioP1;P2;durP2;ratioP2
50367;SDS011;36281;34.132;-118.018;2024-03-25T00:02:11;3.20;;;1.73;;
50367;SDS011;36281;34.132;-118.018;2024-03-25T00:04:39;3.22;;;1.90;;
50367;SDS011;36281;34.132;-118.018;2024-03-25T00:07:06;3.63;;;2.05;;
50367;SDS011;36281;34.132;-118.018;2024-03-25T00:09:34;3.10;;;1.85;;
50367;SDS011;36281;34.132;-118.018;2024-03-25T00:12:01;4.88;;;2.00;;
50367;SDS011;36281;34.132;-118.018;2024-03-25T00:14:32;2.28;;;1.80;;
50367;SDS011;36281;34.132;-118.018;2024-03-25T00:17:00;4.57;;;2.10;;
50367;SDS011;36281;34.132;-118.018;2024-03-25T00:19:27;2.65;;;1.90;;
50367;SDS011;36281;34.132;-118.018;2024-03-25T00:21:55;3.60;;;1.90;;
50367;SDS011;36281;34.132;-118.018;2024-03-25T00:24:23;3.13;;;2.00;;
50367;SDS011;36281;34.132;-118.018;2024-03-25T00:26:50;2.42;;;1.80;;
50367;SDS011;36281;34.132;-118.018;2024-03-25T00:29:18;4.43;;;1.80;;
50367;SDS011;36281;34.132;-118.018;2024-03-25T00:31:47;3.60;;;1.60;;
50367;SDS011;36281;34.132;-118.018;2024-03-25T00:34:14;3.72;;;2.08;;
50367;SDS011;36281;34.132;-118.018;2024-03-25T00:36:42;2.38;;;1.90;;
50367;SDS011;36281;34.132;-118.018;2024-03-25T00:39:10;3.25;;;2.00;;
50367;SDS011;36281;34.132;-118.018;2024-03-25T00:41:38;2.17;;;1.80;;
50367;SDS011;36281;34.132;-118.018;2024-03-25T00:44:06;2.85;;;1.92;;
50367;SDS011;36281;34.132;-118.018;2024-03-25T00:46:34;4.85;;;2.08;;
50367;SDS011;36281;34.132;-118.018;2024-03-25T00:49:04;4.25;;;2.10;;
50367;SDS011;36281;34.132;-118.018;2024-03-25T00:51:31;2.80;;;2.00;;
50367;SDS011;36281;34.132;-118.018;2024-03-25T00:53:59;3.10;;;1.83;;
50367;SDS011;36281;34.132;-118.018;2024-03-25T00:56:26;2.50;;;1.95;;
50367;SDS011;36281;34.132;-118.018;2024-03-25T00:58:54;4.47;;;2.92;;
50367;SDS011;36281;34.132;-118.018;2024-03-25T01:01:23;4.53;;;2.42;;
50367;SDS011;36281;34.132;-118.018;2024-03-25T01:03:51;1.95;;;1.67;;
50367;SDS011;36281;34.132;-118.018;2024-03-25T01:06:21;2.17;;;1.98;;
50367;SDS011;36281;34.132;-118.018;2024-03-25T01:08:49;3.10;;;1.80;;
50367;SDS011;36281;34.132;-118.018;2024-03-25T01:11:17;3.08;;;1.40;;
50367;SDS011;36281;34.132;-118.018;2024-03-25T01:13:44;2.42;;;1.80;;
50367;SDS011;36281;34.132;-118.018;2024-03-25T01:16:12;1.80;;;1.70;;
50367;SDS011;36281;34.132;-118.018;2024-03-25T01:18:40;1.70;;;1.60;;
50367;SDS011;36281;34.132;-118.018;2024-03-25T01:21:07;1.42;;;1.33;;
50367;SDS011;36281;34.132;-118.018;2024-03-25T01:23:37;2.47;;;1.58;;
50367;SDS011;36281;34.132;-118.018;2024-03-25T01:26:05;2.42;;;1.40;;
50367;SDS011;36281;34.132;-118.018;2024-03-25T01:28:33;1.58;;;1.40;;
50367;SDS011;36281;34.132;-118.018;2024-03-25T01:31:01;2.10;;;1.70;;
50367;SDS011;36281;34.132;-118.018;2024-03-25T01:33:29;1.60;;;1.50;;
50367;SDS011;36281;34.132;-118.018;2024-03-25T01:35:57;2.33;;;1.38;;
50367;SDS011;36281;34.132;-118.018;2024-03-25T01:38:24;1.23;;;1.23;;
50367;SDS011;36281;34.132;-118.018;2024-03-25T01:40:54;1.50;;;1.40;;
50367;SDS011;36281;34.132;-118.018;2024-03-25T01:43:23;2.45;;;1.20;;
50367;SDS011;36281;34.132;-118.018;2024-03-25T01:45:51;3.53;;;1.48;;
50367;SDS011;36281;34.132;-118.018;2024-03-25T01:48:21;3.30;;;1.50;;
50367;SDS011;36281;34.132;-118.018;2024-03-25T01:50:49;2.78;;;1.42;;
50367;SDS011;36281;34.132;-118.018;2024-03-25T01:53:17;2.38;;;1.70;;
50367;SDS011;36281;34.132;-118.018;2024-03-25T01:55:45;2.53;;;1.55;;
50367;SDS011;36281;34.132;-118.018;2024-03-25T01:58:17;1.70;;;1.58;;
50367;SDS011;36281;34.132;-118.018;2024-03-25T02:00:46;2.00;;;1.52;;
50367;SDS011;36281;34.132;-118.018;2024-03-25T02:03:14;1.83;;;1.60;;
50367;SDS011;36281;34.132;-118.018;2024-03-25T02:05:42;1.80;;;1.55;;
50367;SDS011;36281;34.132;-118.018;2024-03-25T02:08:10;2.35;;;1.60;;
50367;SDS011;36281;34.132;-118.018;2024-03-25T02:10:39;3.22;;;2.20;;
50367;SDS011;36281;34.132;-118.018;2024-03-25T02:13:07;2.72;;;2.03;;
50367;SDS011;36281;34.132;-118.018;2024-03-25T02:15:37;3.42;;;1.90;;
50367;SDS011;36281;34.132;-118.018;2024-03-25T02:18:05;3.30;;;1.70;;
50367;SDS011;36281;34.132;-118.018;2024-03-25T02:20:33;1.63;;;1.52;;
50367;SDS011;36281;34.132;-118.018;2024-03-25T02:23:00;3.90;;;1.90;;
50367;SDS011;36281;34.132;-118.018;2024-03-25T02:25:28;2.58;;;1.90;;
50367;SDS011;36281;34.132;-118.018;2024-03-25T02:28:01;3.33;;;2.17;;
50367;SDS011;36281;34.132;-118.018;2024-03-25T02:30:29;2.00;;;1.80;;
50367;SDS011;36281;34.132;-118.018;2024-03-25T02:32:56;2.25;;;1.75;;
50367;SDS011;36281;34.132;-118.018;2024-03-25T02:35:24;3.95;;;2.20;;
50367;SDS011;36281;34.132;-118.018;2024-03-25T02:37:53;3.47;;;1.95;;
50367;SDS011;36281;34.132;-118.018;2024-03-25T02:40:21;3.15;;;2.15;;
50367;SDS011;36281;34.132;-118.018;2024-03-25T02:42:50;3.03;;;2.03;;
50367;SDS011;36281;34.132;-118.018;2024-03-25T02:45:20;4.68;;;3.60;;
50367;SDS011;36281;34.132;-118.018;2024-03-25T02:47:47;6.15;;;4.25;;
50367;SDS011;36281;34.132;-118.018;2024-03-25T02:50:15;6.68;;;3.88;;
50367;SDS011;36281;34.132;-118.018;2024-03-25T02:52:43;5.13;;;3.53;;
50367;SDS011;36281;34.132;-118.018;2024-03-25T02:55:10;4.95;;;3.67;;
50367;SDS011;36281;34.132;-118.018;2024-03-25T02:57:38;4.90;;;3.60;;
50367;SDS011;36281;34.132;-118.018;2024-03-25T03:00:06;4.13;;;3.10;;
50367;SDS011;36281;34.132;-118.018;2024-03-25T03:02:37;4.43;;;3.05;;
50367;SDS011;36281;34.132;-118.018;2024-03-25T03:05:05;5.63;;;3.47;;
50367;SDS011;36281;34.132;-118.018;2024-03-25T03:07:33;4.75;;;3.47;;
50367;SDS011;36281;34.132;-118.018;2024-03-25T03:10:00;4.68;;;3.47;;
50367;SDS011;36281;34.132;-118.018;2024-03-25T03:12:28;4.35;;;3.60;;
50367;SDS011;36281;34.132;-118.018;2024-03-25T03:14:56;4.70;;;3.75;;
50367;SDS011;36281;34.132;-118.018;2024-03-25T03:17:26;4.55;;;2.90;;
50367;SDS011;36281;34.132;-118.018;2024-03-25T03:22:35;3.85;;;3.38;;
50367;SDS011;36281;34.132;-118.018;2024-03-25T03:25:02;3.25;;;2.92;;
50367;SDS011;36281;34.132;-118.018;2024-03-25T03:27:30;4.50;;;3.55;;
50367;SDS011;36281;34.132;-118.018;2024-03-25T03:29:58;4.78;;;3.65;;
50367;SDS011;36281;34.132;-118.018;2024-03-25T03:32:25;6.00;;;3.75;;
50367;SDS011;36281;34.132;-118.018;2024-03-25T03:34:53;5.05;;;3.70;;
50367;SDS011;36281;34.132;-118.018;2024-03-25T03:37:20;5.15;;;3.95;;
50367;SDS011;36281;34.132;-118.018;2024-03-25T03:39:49;6.30;;;4.00;;
50367;SDS011;36281;34.132;-118.018;2024-03-25T03:42:17;5.40;;;3.83;;
50367;SDS011;36281;34.132;-118.018;2024-03-25T03:44:44;6.20;;;4.57;;
50367;SDS011;36281;34.132;-118.018;2024-03-25T03:47:12;7.57;;;4.68;;
50367;SDS011;36281;34.132;-118.018;2024-03-25T03:49:39;6.68;;;4.30;;
50367;SDS011;36281;34.132;-118.018;2024-03-25T03:52:07;7.32;;;4.85;;
50367;SDS011;36281;34.132;-118.018;2024-03-25T03:54:34;7.47;;;4.25;;
50367;SDS011;36281;34.132;-118.018;2024-03-25T03:57:03;6.28;;;4.00;;
50367;SDS011;36281;34.132;-118.018;2024-03-25T03:59:31;6.65;;;3.70;;
50367;SDS011;36281;34.132;-118.018;2024-03-25T04:01:58;5.30;;;3.83;;
50367;SDS011;36281;34.132;-118.018;2024-03-25T04:04:26;4.28;;;3.38;;
50367;SDS011;36281;34.132;-118.018;2024-03-25T04:06:53;6.57;;;3.72;;
50367;SDS011;36281;34.132;-118.018;2024-03-25T04:09:21;4.70;;;3.88;;
50367;SDS011;36281;34.132;-118.018;2024-03-25T04:11:49;5.70;;;3.33;;
50367;SDS011;36281;34.132;-118.018;2024-03-25T04:14:19;3.35;;;2.92;;
50367;SDS011;36281;34.132;-118.018;2024-03-25T04:16:46;4.38;;;3.10;;
50367;SDS011;36281;34.132;-118.018;2024-03-25T04:19:14;5.07;;;3.25;;
50367;SDS011;36281;34.132;-118.018;2024-03-25T04:21:42;6.20;;;3.22;;
50367;SDS011;36281;34.132;-118.018;2024-03-25T04:24:09;3.85;;;2.63;;
50367;SDS011;36281;34.132;-118.018;2024-03-25T04:26:37;4.43;;;3.30;;
50367;SDS011;36281;34.132;-118.018;2024-03-25T04:29:04;7.03;;;3.72;;
50367;SDS011;36281;34.132;-118.018;2024-03-25T04:31:34;4.95;;;3.38;;
50367;SDS011;36281;34.132;-118.018;2024-03-25T04:34:02;4.68;;;3.30;;
50367;SDS011;36281;34.132;-118.018;2024-03-25T04:36:30;4.18;;;3.40;;
50367;SDS011;36281;34.132;-118.018;2024-03-25T04:38:58;7.00;;;4.18;;
50367;SDS011;36281;34.132;-118.018;2024-03-25T04:41:25;4.63;;;3.40;;
50367;SDS011;36281;34.132;-118.018;2024-03-25T04:43:53;4.20;;;2.80;;
50367;SDS011;36281;34.132;-118.018;2024-03-25T04:46:20;3.17;;;2.33;;
50367;SDS011;36281;34.132;-118.018;2024-03-25T04:48:49;2.90;;;2.38;;
50367;SDS011;36281;34.132;-118.018;2024-03-25T04:51:17;3.47;;;2.72;;
50367;SDS011;36281;34.132;-118.018;2024-03-25T04:53:44;2.80;;;2.50;;
50367;SDS011;36281;34.132;-118.018;2024-03-25T04:56:12;3.33;;;2.20;;
50367;SDS011;36281;34.132;-118.018;2024-03-25T04:58:39;3.97;;;2.03;;
50367;SDS011;36281;34.132;-118.018;2024-03-25T05:01:07;3.00;;;2.40;;
50367;SDS011;36281;34.132;-118.018;2024-03-25T05:03:34;2.53;;;2.33;;
50367;SDS011;36281;34.132;-118.018;2024-03-25T05:06:03;3.17;;;2.38;;
50367;SDS011;36281;34.132;-118.018;2024-03-25T05:08:31;3.53;;;2.40;;
50367;SDS011;36281;34.132;-118.018;2024-03-25T05:10:59;3.45;;;2.40;;
50367;SDS011;36281;34.132;-118.018;2024-03-25T05:13:26;2.65;;;2.10;;
50367;SDS011;36281;34.132;-118.018;2024-03-25T05:15:54;3.42;;;2.35;;
50367;SDS011;36281;34.132;-118.018;2024-03-25T05:18:21;4.18;;;2.70;;
50367;SDS011;36281;34.132;-118.018;2024-03-25T05:20:49;2.38;;;2.10;;
50367;SDS011;36281;34.132;-118.018;2024-03-25T05:23:18;3.67;;;2.38;;
50367;SDS011;36281;34.132;-118.018;2024-03-25T05:25:45;2.08;;;1.85;;
50367;SDS011;36281;34.132;-118.018;2024-03-25T05:28:13;2.40;;;1.90;;
50367;SDS011;36281;34.132;-118.018;2024-03-25T05:30:40;2.13;;;1.92;;
50367;SDS011;36281;34.132;-118.018;2024-03-25T05:33:08;2.35;;;2.05;;
50367;SDS011;36281;34.132;-118.018;2024-03-25T05:35:35;5.28;;;2.20;;
50367;SDS011;36281;34.132;-118.018;2024-03-25T05:38:03;3.13;;;2.00;;
50367;SDS011;36281;34.132;-118.018;2024-03-25T05:40:33;2.00;;;1.80;;
50367;SDS011;36281;34.132;-118.018;2024-03-25T05:43:00;2.55;;;1.90;;
50367;SDS011;36281;34.132;-118.018;2024-03-25T05:45:28;2.97;;;1.92;;
50367;SDS011;36281;34.132;-118.018;2024-03-25T05:47:55;1.85;;;1.75;;
50367;SDS011;36281;34.132;-118.018;2024-03-25T05:50:22;2.42;;;2.00;;
50367;SDS011;36281;34.132;-118.018;2024-03-25T05:52:50;3.38;;;2.78;;
50367;SDS011;36281;34.132;-118.018;2024-03-25T05:55:17;3.50;;;2.50;;
50367;SDS011;36281;34.132;-118.018;2024-03-25T05:57:46;2.72;;;2.25;;
50367;SDS011;36281;34.132;-118.018;2024-03-25T06:00:14;2.53;;;1.77;;
50367;SDS011;36281;34.132;-118.018;2024-03-25T06:02:42;6.03;;;2.22;;
50367;SDS011;36281;34.132;-118.018;2024-03-25T06:05:10;2.90;;;1.80;;
50367;SDS011;36281;34.132;-118.018;2024-03-25T06:07:37;2.40;;;2.00;;
50367;SDS011;36281;34.132;-118.018;2024-03-25T06:10:05;2.25;;;1.90;;
50367;SDS011;36281;34.132;-118.018;2024-03-25T06:12:33;2.10;;;1.90;;
50367;SDS011;36281;34.132;-118.018;2024-03-25T06:15:02;3.05;;;1.92;;
50367;SDS011;36281;34.132;-118.018;2024-03-25T06:17:30;2.38;;;2.17;;
50367;SDS011;36281;34.132;-118.018;2024-03-25T06:19:57;2.05;;;1.92;;
50367;SDS011;36281;34.132;-118.018;2024-03-25T06:22:25;2.92;;;2.00;;
50367;SDS011;36281;34.132;-118.018;2024-03-25T06:24:53;2.13;;;1.70;;
50367;SDS011;36281;34.132;-118.018;2024-03-25T06:27:20;2.10;;;1.70;;
50367;SDS011;36281;34.132;-118.018;2024-03-25T06:29:48;3.50;;;2.05;;
50367;SDS011;36281;34.132;-118.018;2024-03-25T06:32:17;3.17;;;2.00;;
50367;SDS011;36281;34.132;-118.018;2024-03-25T06:35:03;3.92;;;2.10;;
50367;SDS011;36281;34.132;-118.018;2024-03-25T06:37:31;2.53;;;2.22;;
50367;SDS011;36281;34.132;-118.018;2024-03-25T06:39:59;3.17;;;2.00;;
50367;SDS011;36281;34.132;-118.018;2024-03-25T06:42:26;2.10;;;1.90;;
50367;SDS011;36281;34.132;-118.018;2024-03-25T06:44:54;2.90;;;2.13;;
50367;SDS011;36281;34.132;-118.018;2024-03-25T06:47:23;2.75;;;2.10;;
50367;SDS011;36281;34.132;-118.018;2024-03-25T06:49:50;2.53;;;2.05;;
50367;SDS011;36281;34.132;-118.018;2024-03-25T06:52:18;4.07;;;2.17;;
50367;SDS011;36281;34.132;-118.018;2024-03-25T06:54:45;3.17;;;2.15;;
50367;SDS011;36281;34.132;-118.018;2024-03-25T06:57:13;2.03;;;1.92;;
50367;SDS011;36281;34.132;-118.018;2024-03-25T06:59:40;2.85;;;2.15;;
50367;SDS011;36281;34.132;-118.018;2024-03-25T07:02:08;3.13;;;2.42;;
50367;SDS011;36281;34.132;-118.018;2024-03-25T07:04:37;2.97;;;2.00;;
50367;SDS011;36281;34.132;-118.018;2024-03-25T07:07:04;3.95;;;2.00;;
50367;SDS011;36281;34.132;-118.018;2024-03-25T07:09:32;4.95;;;2.42;;
50367;SDS011;36281;34.132;-118.018;2024-03-25T07:11:59;3.25;;;2.25;;
50367;SDS011;36281;34.132;-118.018;2024-03-25T07:14:27;3.63;;;2.10;;
50367;SDS011;36281;34.132;-118.018;2024-03-25T07:16:54;3.47;;;2.17;;
50367;SDS011;36281;34.132;-118.018;2024-03-25T07:19:22;3.90;;;2.40;;
50367;SDS011;36281;34.132;-118.018;2024-03-25T07:21:51;2.83;;;2.47;;
50367;SDS011;36281;34.132;-118.018;2024-03-25T07:24:18;2.58;;;2.30;;
50367;SDS011;36281;34.132;-118.018;2024-03-25T07:26:46;3.40;;;2.50;;
50367;SDS011;36281;34.132;-118.018;2024-03-25T07:29:14;3.45;;;2.40;;
50367;SDS011;36281;34.132;-118.018;2024-03-25T07:31:41;2.58;;;2.38;;
50367;SDS011;36281;34.132;-118.018;2024-03-25T07:34:09;2.78;;;2.20;;
50367;SDS011;36281;34.132;-118.018;2024-03-25T07:36:37;2.97;;;2.20;;
50367;SDS011;36281;34.132;-118.018;2024-03-25T07:39:07;2.85;;;2.50;;
50367;SDS011;36281;34.132;-118.018;2024-03-25T07:41:38;3.00;;;2.30;;
50367;SDS011;36281;34.132;-118.018;2024-03-25T07:44:05;2.50;;;2.30;;
50367;SDS011;36281;34.132;-118.018;2024-03-25T07:46:33;2.30;;;2.10;;
50367;SDS011;36281;34.132;-118.018;2024-03-25T07:49:00;2.70;;;2.00;;
50367;SDS011;36281;34.132;-118.018;2024-03-25T07:51:28;2.40;;;2.20;;
50367;SDS011;36281;34.132;-118.018;2024-03-25T07:53:55;3.45;;;2.25;;
50367;SDS011;36281;34.132;-118.018;2024-03-25T07:56:24;4.57;;;2.22;;
50367;SDS011;36281;34.132;-118.018;2024-03-25T07:58:52;5.20;;;2.50;;
50367;SDS011;36281;34.132;-118.018;2024-03-25T08:01:19;2.72;;;2.00;;
50367;SDS011;36281;34.132;-118.018;2024-03-25T08:03:47;2.83;;;2.53;;
50367;SDS011;36281;34.132;-118.018;2024-03-25T08:06:14;4.30;;;2.78;;
50367;SDS011;36281;34.132;-118.018;2024-03-25T08:08:42;3.35;;;2.25;;
50367;SDS011;36281;34.132;-118.018;2024-03-25T08:11:10;4.15;;;2.33;;
50367;SDS011;36281;34.132;-118.018;2024-03-25T08:13:39;4.65;;;2.35;;
50367;SDS011;36281;34.132;-118.018;2024-03-25T08:16:06;5.55;;;2.70;;
50367;SDS011;36281;34.132;-118.018;2024-03-25T08:18:34;4.70;;;2.70;;
50367;SDS011;36281;34.132;-118.018;2024-03-25T08:21:01;3.22;;;2.40;;
50367;SDS011;36281;34.132;-118.018;2024-03-25T08:23:29;3.78;;;2.65;;
50367;SDS011;36281;34.132;-118.018;2024-03-25T08:25:57;3.70;;;2.60;;
50367;SDS011;36281;34.132;-118.018;2024-03-25T08:28:24;4.47;;;2.88;;
50367;SDS011;36281;34.132;-118.018;2024-03-25T08:30:53;3.08;;;2.35;;
50367;SDS011;36281;34.132;-118.018;2024-03-25T08:33:21;2.92;;;2.30;;
50367;SDS011;36281;34.132;-118.018;2024-03-25T08:35:49;2.80;;;2.30;;
50367;SDS011;36281;34.132;-118.018;2024-03-25T08:38:16;5.13;;;2.47;;
50367;SDS011;36281;34.132;-118.018;2024-03-25T08:40:44;3.60;;;2.40;;
50367;SDS011;36281;34.132;-118.018;2024-03-25T08:43:11;5.05;;;2.85;;
50367;SDS011;36281;34.132;-118.018;2024-03-25T08:45:39;3.05;;;2.10;;
50367;SDS011;36281;34.132;-118.018;2024-03-25T08:48:08;4.90;;;2.72;;
50367;SDS011;36281;34.132;-118.018;2024-03-25T08:50:36;2.80;;;2.50;;
50367;SDS011;36281;34.132;-118.018;2024-03-25T08:53:04;3.35;;;2.53;;
50367;SDS011;36281;34.132;-118.018;2024-03-25T08:55:31;2.45;;;2.20;;
50367;SDS011;36281;34.132;-118.018;2024-03-25T08:57:59;3.70;;;2.60;;
50367;SDS011;36281;34.132;-118.018;2024-03-25T09:00:26;3.92;;;2.47;;
50367;SDS011;36281;34.132;-118.018;2024-03-25T09:02:54;4.78;;;2.40;;
50367;SDS011;36281;34.132;-118.018;2024-03-25T09:05:23;4.30;;;2.63;;
50367;SDS011;36281;34.132;-118.018;2024-03-25T09:07:51;4.40;;;2.22;;
50367;SDS011;36281;34.132;-118.018;2024-03-25T09:10:18;3.45;;;2.42;;
50367;SDS011;36281;34.132;-118.018;2024-03-25T09:13:04;2.60;;;2.20;;
50367;SDS011;36281;34.132;-118.018;2024-03-25T09:15:32;3.08;;;2.65;;
50367;SDS011;36281;34.132;-118.018;2024-03-25T09:18:00;2.83;;;2.50;;
50367;SDS011;36281;34.132;-118.018;2024-03-25T09:20:29;3.03;;;2.53;;
50367;SDS011;36281;34.132;-118.018;2024-03-25T09:22:56;2.80;;;2.42;;
50367;SDS011;36281;34.132;-118.018;2024-03-25T09:25:24;5.97;;;2.45;;
50367;SDS011;36281;34.132;-118.018;2024-03-25T09:27:51;2.97;;;2.45;;
50367;SDS011;36281;34.132;-118.018;2024-03-25T09:30:19;3.78;;;2.33;;
50367;SDS011;36281;34.132;-118.018;2024-03-25T09:32:46;2.38;;;2.10;;
50367;SDS011;36281;34.132;-118.018;2024-03-25T09:35:14;3.20;;;2.35;;
50367;SDS011;36281;34.132;-118.018;2024-03-25T09:37:43;2.50;;;1.92;;
50367;SDS011;36281;34.132;-118.018;2024-03-25T09:40:11;3.28;;;2.25;;
50367;SDS011;36281;34.132;-118.018;2024-03-25T09:42:41;3.70;;;2.40;;
50367;SDS011;36281;34.132;-118.018;2024-03-25T09:45:13;3.45;;;2.40;;
50367;SDS011;36281;34.132;-118.018;2024-03-25T09:47:43;3.55;;;2.40;;
50367;SDS011;36281;34.132;-118.018;2024-03-25T09:50:13;2.70;;;2.45;;
50367;SDS011;36281;34.132;-118.018;2024-03-25T09:52:51;2.83;;;2.10;;
50367;SDS011;36281;34.132;-118.018;2024-03-25T09:55:19;4.22;;;2.30;;
50367;SDS011;36281;34.132;-118.018;2024-03-25T09:57:46;3.55;;;2.40;;
50367;SDS011;36281;34.132;-118.018;2024-03-25T10:00:14;3.65;;;2.55;;
50367;SDS011;36281;34.132;-118.018;2024-03-25T10:02:42;2.78;;;2.00;;
50367;SDS011;36281;34.132;-118.018;2024-03-25T10:05:10;4.10;;;2.40;;
50367;SDS011;36281;34.132;-118.018;2024-03-25T10:07:37;2.70;;;2.17;;
50367;SDS011;36281;34.132;-118.018;2024-03-25T10:10:07;3.80;;;2.30;;
50367;SDS011;36281;34.132;-118.018;2024-03-25T10:12:35;3.75;;;2.40;;
50367;SDS011;36281;34.132;-118.018;2024-03-25T10:15:03;3.70;;;2.58;;
50367;SDS011;36281;34.132;-118.018;2024-03-25T10:17:31;3.15;;;2.28;;
50367;SDS011;36281;34.132;-118.018;2024-03-25T10:20:00;3.22;;;2.60;;
50367;SDS011;36281;34.132;-118.018;2024-03-25T10:22:27;6.68;;;2.90;;
50367;SDS011;36281;34.132;-118.018;2024-03-25T10:24:55;4.07;;;2.40;;
50367;SDS011;36281;34.132;-118.018;2024-03-25T10:27:26;3.78;;;2.50;;
50367;SDS011;36281;34.132;-118.018;2024-03-25T10:29:54;4.22;;;2.55;;
50367;SDS011;36281;34.132;-118.018;2024-03-25T10:32:22;2.40;;;2.20;;
50367;SDS011;36281;34.132;-118.018;2024-03-25T10:34:54;2.90;;;2.20;;
50367;SDS011;36281;34.132;-118.018;2024-03-25T10:37:22;3.55;;;2.50;;
50367;SDS011;36281;34.132;-118.018;2024-03-25T10:39:54;2.75;;;2.03;;
50367;SDS011;36281;34.132;-118.018;2024-03-25T10:42:29;3.40;;;2.33;;
50367;SDS011;36281;34.132;-118.018;2024-03-25T10:44:58;4.55;;;2.17;;
50367;SDS011;36281;34.132;-118.018;2024-03-25T10:47:27;4.65;;;2.50;;
50367;SDS011;36281;34.132;-118.018;2024-03-25T10:49:57;2.55;;;2.35;;
50367;SDS011;36281;34.132;-118.018;2024-03-25T10:52:25;5.15;;;2.53;;
50367;SDS011;36281;34.132;-118.018;2024-03-25T10:54:55;4.40;;;2.50;;
50367;SDS011;36281;34.132;-118.018;2024-03-25T10:57:24;4.30;;;2.72;;
50367;SDS011;36281;34.132;-118.018;2024-03-25T10:59:54;3.63;;;2.35;;
50367;SDS011;36281;34.132;-118.018;2024-03-25T11:02:23;2.65;;;2.40;;
50367;SDS011;36281;34.132;-118.018;2024-03-25T11:04:51;3.00;;;2.40;;
50367;SDS011;36281;34.132;-118.018;2024-03-25T11:07:30;4.40;;;2.80;;
50367;SDS011;36281;34.132;-118.018;2024-03-25T11:10:05;3.13;;;2.40;;
50367;SDS011;36281;34.132;-118.018;2024-03-25T11:12:34;5.20;;;2.70;;
50367;SDS011;36281;34.132;-118.018;2024-03-25T11:15:04;4.15;;;2.70;;
50367;SDS011;36281;34.132;-118.018;2024-03-25T11:17:35;4.40;;;2.40;;
50367;SDS011;36281;34.132;-118.018;2024-03-25T11:20:07;3.38;;;2.30;;
50367;SDS011;36281;34.132;-118.018;2024-03-25T11:22:36;4.15;;;2.60;;
50367;SDS011;36281;34.132;-118.018;2024-03-25T11:25:14;3.58;;;2.40;;
50367;SDS011;36281;34.132;-118.018;2024-03-25T11:27:42;4.28;;;2.58;;
50367;SDS011;36281;34.132;-118.018;2024-03-25T11:30:12;4.03;;;2.95;;
50367;SDS011;36281;34.132;-118.018;2024-03-25T11:32:45;4.07;;;2.80;;
50367;SDS011;36281;34.132;-118.018;2024-03-25T11:35:13;2.40;;;2.20;;
50367;SDS011;36281;34.132;-118.018;2024-03-25T11:37:40;3.20;;;2.50;;
50367;SDS011;36281;34.132;-118.018;2024-03-25T11:40:09;4.00;;;2.55;;
50367;SDS011;36281;34.132;-118.018;2024-03-25T11:42:40;4.40;;;2.80;;
50367;SDS011;36281;34.132;-118.018;2024-03-25T11:45:14;4.35;;;3.17;;
50367;SDS011;36281;34.132;-118.018;2024-03-25T11:47:42;2.80;;;2.50;;
50367;SDS011;36281;34.132;-118.018;2024-03-25T11:50:11;4.35;;;2.90;;
50367;SDS011;36281;34.132;-118.018;2024-03-25T11:52:40;4.35;;;2.67;;
50367;SDS011;36281;34.132;-118.018;2024-03-25T11:55:08;5.65;;;2.75;;
50367;SDS011;36281;34.132;-118.018;2024-03-25T11:57:37;4.07;;;2.70;;
50367;SDS011;36281;34.132;-118.018;2024-03-25T12:00:07;5.97;;;2.90;;
50367;SDS011;36281;34.132;-118.018;2024-03-25T12:02:44;3.42;;;2.70;;
50367;SDS011;36281;34.132;-118.018;2024-03-25T12:05:12;3.95;;;2.88;;
50367;SDS011;36281;34.132;-118.018;2024-03-25T12:07:40;4.45;;;2.67;;
50367;SDS011;36281;34.132;-118.018;2024-03-25T12:10:07;7.15;;;4.53;;
50367;SDS011;36281;34.132;-118.018;2024-03-25T12:12:54;5.38;;;3.13;;
50367;SDS011;36281;34.132;-118.018;2024-03-25T12:15:22;7.18;;;3.72;;
50367;SDS011;36281;34.132;-118.018;2024-03-25T12:17:51;5.03;;;3.60;;
50367;SDS011;36281;34.132;-118.018;2024-03-25T12:20:19;4.38;;;3.10;;
50367;SDS011;36281;34.132;-118.018;2024-03-25T12:22:48;4.07;;;3.00;;
50367;SDS011;36281;34.132;-118.018;2024-03-25T12:25:15;6.47;;;2.65;;
50367;SDS011;36281;34.132;-118.018;2024-03-25T12:27:46;4.00;;;2.85;;
50367;SDS011;36281;34.132;-118.018;2024-03-25T12:30:15;4.07;;;2.90;;
50367;SDS011;36281;34.132;-118.018;2024-03-25T12:32:43;4.57;;;2.80;;
50367;SDS011;36281;34.132;-118.018;2024-03-25T12:35:13;4.53;;;2.90;;
50367;SDS011;36281;34.132;-118.018;2024-03-25T12:37:44;4.32;;;3.10;;
50367;SDS011;36281;34.132;-118.018;2024-03-25T12:40:12;4.18;;;2.60;;
50367;SDS011;36281;34.132;-118.018;2024-03-25T12:42:51;3.65;;;2.83;;
50367;SDS011;36281;34.132;-118.018;2024-03-25T12:45:19;3.28;;;2.60;;
50367;SDS011;36281;34.132;-118.018;2024-03-25T12:47:47;4.47;;;3.20;;
50367;SDS011;36281;34.132;-118.018;2024-03-25T12:50:16;3.72;;;2.72;;
50367;SDS011;36281;34.132;-118.018;2024-03-25T12:52:45;4.00;;;2.85;;
50367;SDS011;36281;34.132;-118.018;2024-03-25T12:55:13;4.45;;;2.55;;
50367;SDS011;36281;34.132;-118.018;2024-03-25T12:57:41;3.72;;;2.30;;
50367;SDS011;36281;34.132;-118.018;2024-03-25T13:00:08;3.20;;;2.40;;
50367;SDS011;36281;34.132;-118.018;2024-03-25T13:02:36;4.00;;;2.90;;
50367;SDS011;36281;34.132;-118.018;2024-03-25T13:05:04;3.30;;;3.00;;
50367;SDS011;36281;34.132;-118.018;2024-03-25T13:07:34;4.47;;;2.60;;
50367;SDS011;36281;34.132;-118.018;2024-03-25T13:10:01;3.08;;;2.75;;
50367;SDS011;36281;34.132;-118.018;2024-03-25T13:12:31;3.92;;;2.60;;
50367;SDS011;36281;34.132;-118.018;2024-03-25T13:14:58;3.78;;;2.30;;
50367;SDS011;36281;34.132;-118.018;2024-03-25T13:17:26;4.78;;;2.60;;
50367;SDS011;36281;34.132;-118.018;2024-03-25T13:19:53;3.22;;;2.38;;
50367;SDS011;36281;34.132;-118.018;2024-03-25T13:22:21;3.97;;;2.55;;
50367;SDS011;36281;34.132;-118.018;2024-03-25T13:24:50;3.70;;;2.67;;
50367;SDS011;36281;34.132;-118.018;2024-03-25T13:27:18;2.78;;;2.33;;
50367;SDS011;36281;34.132;-118.018;2024-03-25T13:29:45;4.25;;;2.90;;
50367;SDS011;36281;34.132;-118.018;2024-03-25T13:32:13;3.63;;;2.40;;
50367;SDS011;36281;34.132;-118.018;2024-03-25T13:34:40;3.30;;;2.20;;
50367;SDS011;36281;34.132;-118.018;2024-03-25T13:37:08;2.47;;;2.28;;
50367;SDS011;36281;34.132;-118.018;2024-03-25T13:39:35;3.20;;;2.45;;
50367;SDS011;36281;34.132;-118.018;2024-03-25T13:42:05;3.85;;;2.53;;
50367;SDS011;36281;34.132;-118.018;2024-03-25T13:44:32;3.22;;;2.30;;
50367;SDS011;36281;34.132;-118.018;2024-03-25T13:47:00;3.30;;;2.40;;
50367;SDS011;36281;34.132;-118.018;2024-03-25T13:49:28;4.30;;;2.35;;
50367;SDS011;36281;34.132;-118.018;2024-03-25T13:51:56;2.90;;;2.25;;
50367;SDS011;36281;34.132;-118.018;2024-03-25T13:54:27;4.75;;;2.55;;
50367;SDS011;36281;34.132;-118.018;2024-03-25T13:56:56;2.70;;;2.10;;
50367;SDS011;36281;34.132;-118.018;2024-03-25T13:59:25;2.88;;;2.28;;
50367;SDS011;36281;34.132;-118.018;2024-03-25T14:01:52;2.67;;;2.10;;
50367;SDS011;36281;34.132;-118.018;2024-03-25T14:04:20;2.72;;;2.10;;
50367;SDS011;36281;34.132;-118.018;2024-03-25T14:06:47;6.57;;;2.60;;
50367;SDS011;36281;34.132;-118.018;2024-03-25T14:09:23;3.88;;;2.22;;
50367;SDS011;36281;34.132;-118.018;2024-03-25T14:11:50;3.47;;;2.25;;
50367;SDS011;36281;34.132;-118.018;2024-03-25T14:14:18;5.43;;;2.63;;
50367;SDS011;36281;34.132;-118.018;2024-03-25T14:16:47;4.13;;;2.55;;
50367;SDS011;36281;34.132;-118.018;2024-03-25T14:19:14;3.72;;;2.35;;